Bearskin Lake, Canada
Current Conditions -  °F | °C
As of 4:00 PM on Wednesday 22 Oct 2014 (Local Time) from CYTL Reporting Station
Clear Clear  
Wind Chill: 14°   Ceiling: Unl
Heat Index: 14°   Visibility: 9mi
Dew Point:   Wind: 14mph
Humidity: 59%   Direction: 170°S
Pressure: 29.82"   Gusts: 20mph
Location:  53.93°N, 90.98°W
Report Text: CYTL 222100Z AUTO 17012G17KT 9SM CLR 14/06 A2982 RMK SLP106 DENSITY ALT 900FT
Loading
Personal Weather Stations






























Interactive Weather Map
Tropical Storm Tracking
New forecast layout! Learn more

10-Day Weather Forecast

Advertisements
Track Severe Weather on mobile